createdAt,value
2022-11-29T00:02:29.183Z,49.25
2022-11-29T00:07:30.753Z,44.35
2022-11-29T00:12:32.130Z,46.97
2022-11-29T00:17:33.576Z,45.00
2022-11-29T00:22:35.140Z,44.22
2022-11-29T00:27:36.723Z,53.53
2022-11-29T00:32:38.233Z,49.78
2022-11-29T00:37:39.751Z,48.85
2022-11-29T00:42:41.187Z,50.65
2022-11-29T00:47:42.622Z,51.40
2022-11-29T00:52:44.027Z,53.72
2022-11-29T00:57:45.428Z,57.00
2022-11-29T01:02:46.934Z,61.75
2022-11-29T01:07:48.447Z,63.63
2022-11-29T01:12:50.029Z,70.00
2022-11-29T01:17:51.451Z,56.42
2022-11-29T01:22:53.159Z,73.85
2022-11-29T01:27:54.630Z,69.13
2022-11-29T01:32:56.025Z,71.88
2022-11-29T01:37:57.408Z,68.68
2022-11-29T01:42:58.763Z,64.68
2022-11-29T01:48:00.966Z,73.68
2022-11-29T01:53:03.452Z,59.33
2022-11-29T01:58:07.986Z,68.57
2022-11-29T02:03:15.178Z,65.65
2022-11-29T02:08:23.514Z,74.38
2022-11-29T02:13:40.014Z,62.67
2022-11-29T02:19:42.893Z,70.30
2022-11-29T02:25:03.433Z,65.88
2022-11-29T02:30:35.635Z,72.88
2022-11-29T02:35:58.430Z,63.95
2022-11-29T02:41:19.702Z,59.10
2022-11-29T02:46:35.346Z,58.33
2022-11-29T02:51:47.943Z,60.97
2022-11-29T02:57:07.363Z,61.20
2022-11-29T03:02:23.360Z,60.30
2022-11-29T03:07:37.508Z,58.55
2022-11-29T03:12:46.211Z,52.25
2022-11-29T03:18:16.803Z,53.40
2022-11-29T03:23:37.498Z,53.25
2022-11-29T03:29:07.056Z,47.13
2022-11-29T03:34:43.854Z,51.22
2022-11-29T03:40:04.691Z,50.47
2022-11-29T03:45:16.360Z,49.58
2022-11-29T03:50:23.365Z,49.85
2022-11-29T03:55:33.047Z,51.70
2022-11-29T04:01:01.452Z,52.63
2022-11-29T04:06:36.935Z,53.17
2022-11-29T04:12:07.947Z,51.90
2022-11-29T04:17:40.445Z,52.17
2022-11-29T04:23:17.556Z,42.75
2022-11-29T04:28:18.889Z,34.05
2022-11-29T04:33:41.105Z,30.67
2022-11-29T04:39:13.544Z,34.22
2022-11-29T04:44:23.636Z,33.53
2022-11-29T04:49:52.832Z,36.22
2022-11-29T04:55:04.524Z,39.85
2022-11-29T05:00:11.295Z,41.55
2022-11-29T05:10:39.233Z,34.33
2022-11-29T05:16:18.241Z,41.03
2022-11-29T05:21:45.991Z,36.40
2022-11-29T05:26:59.717Z,41.40
2022-11-29T05:32:33.786Z,39.70
2022-11-29T05:37:50.756Z,38.20
2022-11-29T05:48:31.547Z,31.55
2022-11-29T05:54:08.177Z,26.67
2022-11-29T05:59:15.218Z,29.13
2022-11-29T06:04:48.842Z,31.45
2022-11-29T06:10:01.525Z,37.70
2022-11-29T06:15:56.666Z,37.00
2022-11-29T06:21:22.469Z,38.30
2022-11-29T06:26:46.120Z,35.95
2022-11-29T06:31:55.719Z,35.45
2022-11-29T06:37:04.375Z,32.75
2022-11-29T06:42:08.691Z,39.08
2022-11-29T06:47:28.264Z,38.47
2022-11-29T06:52:43.804Z,38.20
2022-11-29T06:58:08.752Z,26.55
2022-11-29T07:03:38.470Z,27.38
2022-11-29T07:08:40.430Z,24.23
2022-11-29T07:13:42.158Z,31.13
2022-11-29T07:19:00.191Z,39.88
2022-11-29T07:24:13.947Z,27.77
2022-11-29T07:29:37.082Z,23.20
2022-11-29T07:34:52.948Z,25.10
2022-11-29T07:40:03.920Z,25.52
2022-11-29T07:45:18.467Z,26.35
2022-11-29T07:50:21.286Z,23.42
2022-11-29T07:55:25.521Z,19.23
2022-11-29T08:00:27.220Z,15.00
2022-11-29T08:05:47.969Z,19.15
2022-11-29T08:10:49.383Z,20.88
2022-11-29T08:15:50.923Z,17.58
2022-11-29T08:20:52.296Z,13.38
2022-11-29T08:25:59.945Z,17.73
2022-11-29T08:31:03.525Z,16.15
2022-11-29T08:36:10.314Z,15.73
2022-11-29T08:46:18.606Z,16.92
2022-11-29T08:51:20.599Z,15.35
2022-11-29T08:57:10.127Z,14.80
2022-11-29T09:01:43.473Z,15.68
2022-11-29T09:06:44.875Z,14.75
2022-11-29T09:11:49.357Z,12.73
2022-11-29T09:16:51.214Z,16.00
2022-11-29T09:21:52.673Z,13.85
2022-11-29T09:26:54.072Z,13.48
2022-11-29T09:31:55.568Z,12.95
2022-11-29T09:37:07.090Z,14.10
2022-11-29T09:42:18.459Z,11.55
2022-11-29T09:47:41.760Z,12.65
2022-11-29T09:53:15.682Z,12.15
2022-11-29T09:58:21.606Z,10.55
2022-11-29T10:03:29.268Z,12.50
2022-11-29T10:08:38.668Z,9.55
2022-11-29T10:13:45.722Z,11.57
2022-11-29T10:18:51.845Z,11.48
2022-11-29T10:23:57.679Z,11.63
2022-11-29T10:28:59.644Z,10.97
2022-11-29T10:34:09.991Z,13.50
2022-11-29T10:39:46.669Z,11.80
2022-11-29T10:44:48.073Z,12.30
2022-11-29T10:49:49.923Z,12.45
2022-11-29T10:54:56.566Z,12.40
2022-11-29T11:00:07.014Z,9.98
2022-11-29T11:05:18.610Z,10.93
2022-11-29T11:10:30.810Z,11.48
2022-11-29T11:15:33.494Z,11.00
2022-11-29T11:20:39.745Z,14.95
2022-11-29T11:25:41.185Z,13.57
2022-11-29T11:30:50.792Z,14.65
2022-11-29T11:36:07.371Z,14.15
2022-11-29T11:41:20.635Z,16.30
2022-11-29T11:46:22.071Z,15.30
2022-11-29T11:51:25.677Z,18.30
2022-11-29T11:56:34.764Z,16.40
2022-11-29T12:01:38.579Z,16.98
2022-11-29T12:07:00.389Z,14.88
2022-11-29T12:12:31.092Z,22.73
2022-11-29T12:17:38.604Z,28.65
2022-11-29T12:22:48.603Z,15.18
2022-11-29T12:27:50.869Z,14.77
2022-11-29T12:33:01.453Z,13.35
2022-11-29T12:38:32.567Z,15.65
2022-11-29T12:43:55.329Z,13.63
2022-11-29T12:49:11.706Z,13.32
2022-11-29T12:54:16.321Z,12.07
2022-11-29T12:59:44.602Z,12.60
2022-11-29T13:04:59.380Z,11.93
2022-11-29T13:10:22.935Z,12.80
2022-11-29T13:15:28.991Z,12.93
2022-11-29T13:20:47.953Z,15.18
2022-11-29T13:25:54.438Z,13.68
2022-11-29T13:31:06.205Z,14.65
2022-11-29T13:36:26.096Z,12.02
2022-11-29T13:41:55.377Z,13.75
2022-11-29T13:47:05.678Z,13.25
2022-11-29T13:52:07.301Z,12.73
2022-11-29T13:57:09.752Z,13.07
2022-11-29T14:02:31.229Z,11.80
2022-11-29T14:07:34.950Z,11.05
2022-11-29T14:12:56.710Z,11.50
2022-11-29T14:18:02.312Z,12.00
2022-11-29T14:23:07.544Z,14.45
2022-11-29T14:28:14.860Z,15.25
2022-11-29T14:33:43.757Z,13.57
2022-11-29T14:38:54.631Z,14.05
2022-11-29T14:44:20.110Z,14.90
2022-11-29T14:49:24.501Z,15.70
2022-11-29T14:54:25.981Z,15.07
2022-11-29T14:59:50.280Z,17.00
2022-11-29T15:04:54.791Z,15.40
2022-11-29T15:10:01.102Z,15.65
2022-11-29T15:15:33.953Z,10.65
2022-11-29T15:20:59.085Z,14.25
2022-11-29T15:26:01.003Z,14.55
2022-11-29T15:31:06.047Z,17.45
2022-11-29T15:36:19.717Z,16.67
2022-11-29T15:41:34.437Z,17.75
2022-11-29T15:46:36.247Z,16.77
2022-11-29T15:51:39.365Z,15.82
2022-11-29T15:56:51.983Z,15.93
2022-11-29T16:01:55.847Z,16.08
2022-11-29T16:06:57.763Z,21.63
2022-11-29T16:12:01.810Z,19.27
2022-11-29T16:17:05.275Z,18.80
2022-11-29T16:22:12.508Z,18.58
2022-11-29T16:27:14.285Z,16.63
2022-11-29T16:32:42.931Z,19.63
2022-11-29T16:37:46.605Z,13.80
2022-11-29T16:43:23.485Z,14.50
2022-11-29T16:48:27.776Z,15.88
2022-11-29T16:53:38.063Z,19.17
2022-11-29T16:59:20.929Z,21.92
2022-11-29T17:04:02.025Z,17.73
2022-11-29T17:09:04.297Z,15.65
2022-11-29T17:14:05.737Z,16.45
2022-11-29T17:19:11.717Z,17.67
2022-11-29T17:24:15.754Z,17.27
2022-11-29T17:29:17.940Z,19.88
2022-11-29T17:34:19.705Z,20.00
2022-11-29T17:39:22.574Z,26.80
2022-11-29T17:44:24.009Z,18.73
2022-11-29T17:49:25.624Z,21.45
2022-11-29T17:54:27.014Z,19.08
2022-11-29T17:59:28.570Z,21.30
2022-11-29T18:04:30.053Z,20.52
2022-11-29T18:09:31.412Z,20.83
2022-11-29T18:14:33.499Z,20.63
2022-11-29T18:19:34.882Z,22.17
2022-11-29T18:24:36.237Z,20.85
2022-11-29T18:29:39.390Z,18.83
2022-11-29T18:34:40.866Z,18.55
2022-11-29T18:39:42.360Z,18.55
2022-11-29T18:44:44.002Z,18.77
2022-11-29T18:49:45.763Z,18.08
2022-11-29T18:54:47.559Z,18.05
2022-11-29T18:59:49.762Z,18.45
2022-11-29T19:04:53.903Z,18.33
2022-11-29T19:09:56.358Z,20.13
2022-11-29T19:15:03.035Z,16.75
2022-11-29T19:20:05.114Z,17.70
2022-11-29T19:25:08.581Z,17.85
2022-11-29T19:30:10.781Z,17.27
2022-11-29T19:35:14.604Z,13.70
2022-11-29T19:40:17.637Z,17.38
2022-11-29T19:45:19.819Z,15.10
2022-11-29T19:50:25.561Z,15.65
2022-11-29T19:55:27.126Z,16.70
2022-11-29T20:00:29.841Z,18.95
2022-11-29T20:05:31.655Z,14.95
2022-11-29T20:10:34.348Z,14.73
2022-11-29T20:15:38.014Z,13.50
2022-11-29T20:20:42.083Z,13.10
2022-11-29T20:25:48.739Z,11.30
2022-11-29T20:30:50.406Z,13.02
2022-11-29T20:36:04.574Z,12.52
2022-11-29T20:41:24.771Z,11.43
2022-11-29T20:46:26.640Z,10.57
2022-11-29T20:51:45.116Z,12.68
2022-11-29T20:56:47.024Z,14.57
2022-11-29T21:01:52.516Z,13.63
2022-11-29T21:06:53.994Z,12.48
2022-11-29T21:11:55.713Z,12.85
2022-11-29T21:16:57.425Z,11.82
2022-11-29T21:22:10.866Z,12.02
2022-11-29T21:27:20.995Z,11.60
2022-11-29T21:32:25.663Z,12.00
2022-11-29T21:37:29.691Z,11.75
2022-11-29T21:42:31.189Z,11.55
2022-11-29T21:47:33.325Z,13.20
2022-11-29T21:52:34.859Z,12.70
2022-11-29T21:57:36.628Z,12.85
2022-11-29T22:02:38.127Z,12.57
2022-11-29T22:07:41.971Z,13.75
2022-11-29T22:12:52.239Z,13.32
2022-11-29T22:17:54.296Z,13.70
2022-11-29T22:22:58.655Z,14.20
2022-11-29T22:28:00.426Z,15.40
2022-11-29T22:33:02.889Z,16.60
2022-11-29T22:38:04.311Z,17.40
2022-11-29T22:43:06.166Z,16.33
2022-11-29T22:48:09.895Z,18.42
2022-11-29T22:53:14.162Z,18.00
2022-11-29T22:58:15.584Z,17.13
2022-11-29T23:03:19.698Z,18.17
2022-11-29T23:08:26.412Z,16.75
2022-11-29T23:13:27.940Z,17.10
2022-11-29T23:18:30.808Z,16.23
2022-11-29T23:23:32.612Z,16.90
2022-11-29T23:28:35.534Z,17.00
2022-11-29T23:33:38.268Z,17.65
2022-11-29T23:38:43.194Z,16.27
2022-11-29T23:43:47.794Z,15.63
2022-11-29T23:48:51.387Z,15.25
2022-11-29T23:53:53.739Z,15.13
2022-11-29T23:58:55.846Z,15.43
